Columbia, South Carolina
Current Conditions -  °F | °C
As of 2:53 AM on Thursday 27 Nov 2014 (Local Time) from KCUB Reporting Station
Overcast Overcast  
Wind Chill:   Ceiling: 8500
Heat Index:   Visibility: 10mi
Dew Point:   Wind: 0mph
Humidity: 74%   Direction: NA
Pressure: 30.06"   Gusts: NA
Location:  34°N, 81.04°W
Report Text: KCUB 270753Z AUTO 00000KT 10SM BKN085 OVC110 06/02 A3006 RMK AO2 SLP180 T00610017
Loading
Personal Weather Stations






























Interactive Weather Map New forecast layout! Learn more

10-Day Weather Forecast

Advertisements
Track Severe Weather on mobile